Puerto del Rosario, Spain
Current Conditions -  °F | °C
As of 8:30 PM on Friday 28 Nov 2014 (Local Time) from GCFV Reporting Station
Scattered Clouds Scattered Clouds  
Wind Chill: 18°   Ceiling: Unl
Heat Index: 18°   Visibility: 6mi
Dew Point: 14°   Wind: 37mph
Humidity: 77%   Direction: 290°WNW
Pressure: 29.44"   Gusts: 53mph
Location:  28.5°N, 13.86°W
Report Text: GCFV 282030Z 29032G46KT 260V320 9999 FEW019 SCT035 18/14 Q0997
Loading
Personal Weather Stations






























Interactive Weather Map New forecast layout! Learn more

10-Day Weather Forecast

Advertisements
Track Severe Weather on mobile